Pierre Regional Airport
KPIR : now visible

Airfield :











YOU CAN JOIN US ON...

 
LOGIN :

Register | Disclaimer

   EN    FR    IT 

 









Legend :    VFR   Marginal VFR   IFR   Intensive IFR   Very Intensive IFR
Visi :
Ceiling :
>= 8 km
>= 3000ft
5 to 8 km
1000 to 3000 ft
1500m to 5 km
500 to 1000 ft
800 to 1500m
200 to 500 ft
< 800m
< 200 ft
Symbols :   Thunderstorms  Fog  Heavy snow  Heavy precipitations  Wind > 20 kt






- Airport Elevation : 1744 ft
- IATA code : PIR


KPIR - Pierre Regional

CURRENT METAR :
  • 271740Z AUTO 00000KT 10SM SCT009 OVC015 M02/M03 A3009 RMK AO2 T10171033

EXPIRED METARs :
  • 271718Z AUTO 00000KT 10SM BKN009 OVC015 M02/M03 A3009 RMK AO2 T10171033
  • 271710Z AUTO 00000KT 10SM SCT009 OVC015 M02/M03 A3009 RMK AO2 T10171033
  • 271653Z AUTO 00000KT 10SM OVC016 M02/M04 A3009 RMK AO2 SLP208 T10171039
  • 271553Z AUTO 08003KT 9SM OVC016 M02/M03 A3007 RMK AO2 SLP202 T10221033
  • 271453Z AUTO 00000KT 10SM OVC018 M02/M04 A3007 RMK AO2 SLP200 T10221039 53007

TAF KPIR
Valid from the 27 at 18:00 until the 28 at 18:00 UTC


271725Z 2718/2818 00000KT P6SM BKN009 OVC015
FM272300 VRB03KT P6SM BKN022
FM280100 00000KT P6SM BKN018
FM281000 VRB03KT P6SM OVC009
FM281600 VRB04KT 6SM BR OVC011



MET'MAP, your aeronautical weather chart ! - Copyright ORBIFLY December 2007 - Disclaimer

ORBIFLY MET'MAP TEAM :

Programming & Development : Alexandra Zaïnal
Concept & original design : Baudouin d'Aumeries
Assistance for programming : Marc-Olivier Méhu
Technical & hardware support : Manuel Goepfert

Contact : metmap@orbifly.com




SOURCES & CREDITS :

   NOAA       Earth
Advisory